Etusivu
METAR-TAF:

METAR-TAF

Lentoasemat :

Wanaham

Lifou, Uusi-Kaledonia

Leveyspiiri: 20-46S, Pituuspiiri: 167-14E, korkeus merenpinnasta: 28 m

METAR: puuttuu

Aika: 06:19 (19:19 UTC)

Sääennuste

Tämä raportti tehtiin 2 tuntia ja 19 minuuttia sitten, kello 17.00 UTC
Ennuste voimassa 26. päivästä klo 18 UTC - 27. päivään klo 18 UTC
Tuuli 2 kn eri suunnista
Näkyvyys 10 km tai enemmän
Muutamia pilviä 2500 ft:n korkeudessa
Hajanaisia pilviä 6000 ft:n korkeudessa
Todennäköisyys 30% :
Ajoittain
26. päivästä klo 18 UTC - 26. päivään klo 21 UTC
vesikuuroja
Tulossa
26. päivästä klo 21 UTC - 26. päivään klo 23 UTC
Tuuli 12 kn kaakosta
Ajoittain
27. päivästä klo 00 UTC - 27. päivään klo 06 UTC
Näkyvyys: 4000 m
Muutamia pilviä 2500 ft:n korkeudessa, Kasvava cumulus-pilvi.
vesikuuroja,

TAF: NWWL 261700Z 2618/2718 VRB02KT 9999 FEW025 SCT060 PROB30 TEMPO 2618/2621 SHRA BECMG 2621/2623 13012KT TEMPO 2700/2706 4000 SHRA FEW025TCU

Säähavainnot ja -ennusteet yli 4000 lentoasemalta (METAR- ja TAF-raportit).

Käytössä olevat sääasemat on merkitty karttaan keltaisilla ja punaisilla pisteillä.

Aseta hiiri pisteen päälle nähdäksesi sääaseman nimen.

Klikkaa sitten nähdäksesi säähavainnot ja -ennusteet.

Kartan vaihtaminen: klikkaa mustalla rastilla varustettuja vihreitä pisteitä, niin voit zoomata sisään; viivalla varustettua vihreää pistettä, niin voit zoomata ulos tai vihreitä nuolia, niin pääset viereisille kartoille.


METAR-TAF: